createdAt,value
2023-02-09T06:30:50.554Z,-6.20
2023-02-09T06:35:46.730Z,-6.10
2023-02-09T06:38:13.981Z,-6.10
2023-02-09T06:40:41.158Z,-6.20
2023-02-09T06:43:08.467Z,-6.30
2023-02-09T06:45:39.839Z,-6.00
2023-02-09T06:48:08.532Z,-6.00
2023-02-09T06:50:37.277Z,-6.00
2023-02-09T06:53:05.402Z,-6.00
2023-02-09T07:10:20.213Z,-5.90
2023-02-09T07:15:17.789Z,-5.90
2023-02-09T07:17:45.679Z,-5.60
2023-02-09T07:20:13.572Z,-5.50
2023-02-09T07:22:41.233Z,-5.60
2023-02-09T07:25:08.534Z,-5.20
2023-02-09T07:27:35.941Z,-5.30
2023-02-09T07:30:03.818Z,-5.20
2023-02-09T07:32:30.986Z,-5.20
2023-02-09T07:34:58.687Z,-5.20
2023-02-09T07:37:26.237Z,-5.30
2023-02-09T07:39:54.090Z,-5.20
2023-02-09T07:42:23.400Z,-4.80
2023-02-09T07:44:51.834Z,-4.60
2023-02-09T07:47:19.249Z,-4.10
2023-02-09T07:49:46.799Z,-3.40
2023-02-09T07:52:14.044Z,-2.60
2023-02-09T07:54:41.336Z,-2.10
2023-02-09T07:57:08.605Z,-1.40
2023-02-09T07:59:35.970Z,-1.30
2023-02-09T08:02:04.564Z,-1.10
2023-02-09T08:04:32.303Z,-0.50
2023-02-09T08:07:00.231Z,-0.20
2023-02-09T08:09:28.961Z,-0.30
2023-02-09T08:12:03.659Z,0.10
2023-02-09T08:14:51.179Z,-0.10
2023-02-09T08:17:20.889Z,0.70
2023-02-09T08:19:55.282Z,0.20
2023-02-09T08:22:25.070Z,0.90
2023-02-09T08:24:52.690Z,1.60
2023-02-09T08:27:19.914Z,1.40
2023-02-09T08:29:48.916Z,1.40
2023-02-09T08:32:16.359Z,1.70
2023-02-09T08:34:43.625Z,1.50
2023-02-09T08:37:10.962Z,1.70
2023-02-09T08:39:38.229Z,1.60
2023-02-09T08:42:06.773Z,2.10
2023-02-09T08:44:34.177Z,2.70
2023-02-09T08:47:01.580Z,3.80
2023-02-09T08:49:28.897Z,4.10
2023-02-09T08:51:56.411Z,4.20
2023-02-09T08:54:24.892Z,4.40
2023-02-09T08:56:52.069Z,4.50
2023-02-09T08:59:20.229Z,4.30
2023-02-09T09:01:47.874Z,4.10
2023-02-09T09:04:15.644Z,4.20
2023-02-09T09:06:43.301Z,4.20
2023-02-09T09:09:10.516Z,4.50
2023-02-09T09:11:37.674Z,5.30
2023-02-09T09:14:04.832Z,6.10
2023-02-09T09:16:32.256Z,6.90
2023-02-09T09:18:59.790Z,7.30
2023-02-09T09:21:26.995Z,7.00
2023-02-09T09:23:54.346Z,7.40
2023-02-09T09:26:21.647Z,7.50
2023-02-09T09:28:52.394Z,7.70
2023-02-09T09:31:20.150Z,7.70
2023-02-09T09:33:47.786Z,7.90
2023-02-09T09:36:15.241Z,7.60
2023-02-09T09:38:43.010Z,7.50
2023-02-09T09:41:31.680Z,7.30
2023-02-09T09:44:00.654Z,7.70
2023-02-09T09:46:39.935Z,7.90
2023-02-09T09:49:16.140Z,8.60
2023-02-09T09:51:47.804Z,8.10
2023-02-09T09:54:20.256Z,7.80
2023-02-09T09:56:48.481Z,7.20
2023-02-09T09:59:19.364Z,6.00
2023-02-09T10:01:50.644Z,5.90
2023-02-09T10:04:19.656Z,6.20
2023-02-09T10:06:56.509Z,6.10
2023-02-09T10:09:41.983Z,6.40
2023-02-09T10:12:37.248Z,5.80
2023-02-09T10:15:25.931Z,6.30
2023-02-09T10:17:55.199Z,5.90
2023-02-09T10:20:49.090Z,5.10
2023-02-09T10:23:37.162Z,5.00
2023-02-09T10:26:07.292Z,5.50
2023-02-09T10:28:50.091Z,6.50
2023-02-09T10:31:29.361Z,7.20
2023-02-09T10:34:23.035Z,6.90
2023-02-09T10:36:55.858Z,6.70
2023-02-09T10:39:32.851Z,7.20
2023-02-09T10:42:32.664Z,7.30
2023-02-09T10:45:14.273Z,7.20
2023-02-09T10:47:41.799Z,7.40
2023-02-09T10:50:13.733Z,7.40
2023-02-09T10:53:02.326Z,6.90
2023-02-09T10:55:39.557Z,6.00
2023-02-09T10:58:17.203Z,6.00
2023-02-09T11:00:47.169Z,6.90
2023-02-09T11:03:23.094Z,6.30
2023-02-09T11:06:14.170Z,6.90
2023-02-09T11:08:58.004Z,6.70
2023-02-09T11:11:37.762Z,7.00
2023-02-09T11:14:14.845Z,7.10
2023-02-09T11:16:50.761Z,7.20
2023-02-09T11:19:48.614Z,6.20
2023-02-09T11:22:31.421Z,5.90
2023-02-09T11:25:18.490Z,6.40
2023-02-09T11:28:03.206Z,6.20
2023-02-09T11:30:54.862Z,6.30
2023-02-09T11:33:27.858Z,6.30
2023-02-09T11:36:13.853Z,6.80
2023-02-09T11:39:02.098Z,6.30
2023-02-09T11:42:03.870Z,5.80
2023-02-09T11:44:52.658Z,5.90
2023-02-09T11:47:59.129Z,5.20
2023-02-09T11:50:37.265Z,5.70
2023-02-09T11:53:29.369Z,5.60
2023-02-09T11:55:59.367Z,5.50
2023-02-09T11:58:42.482Z,5.50
2023-02-09T12:01:17.230Z,5.60
2023-02-09T12:04:04.929Z,5.80
2023-02-09T12:06:43.047Z,5.80
2023-02-09T12:09:21.302Z,5.60
2023-02-09T12:12:15.278Z,5.50
2023-02-09T12:14:55.532Z,5.00
2023-02-09T12:17:53.184Z,6.00
2023-02-09T12:20:24.469Z,4.70
2023-02-09T12:23:14.835Z,4.90
2023-02-09T12:25:51.647Z,4.60
2023-02-09T12:28:28.469Z,4.50
2023-02-09T12:30:58.772Z,4.50
2023-02-09T12:33:26.839Z,4.50
2023-02-09T12:36:05.730Z,4.80
2023-02-09T12:38:56.817Z,4.50
2023-02-09T12:41:28.196Z,4.50
2023-02-09T12:44:10.682Z,4.50
2023-02-09T12:46:54.519Z,4.40
2023-02-09T12:49:32.347Z,4.50
2023-02-09T12:52:00.585Z,4.30
2023-02-09T12:54:40.835Z,4.00
2023-02-09T12:57:20.610Z,4.10
2023-02-09T12:59:52.805Z,4.90
2023-02-09T13:02:46.656Z,4.20
2023-02-09T13:05:14.791Z,4.10
2023-02-09T13:08:07.157Z,4.00
2023-02-09T13:11:02.389Z,4.00
2023-02-09T13:13:48.018Z,4.00
2023-02-09T13:16:30.207Z,3.90
2023-02-09T13:19:14.961Z,3.90
2023-02-09T13:22:11.015Z,3.90
2023-02-09T13:24:44.912Z,3.90
2023-02-09T13:27:23.142Z,3.80
2023-02-09T13:29:53.431Z,4.70
2023-02-09T13:32:41.384Z,3.80
2023-02-09T13:35:23.524Z,3.70
2023-02-09T13:38:03.502Z,3.80
2023-02-09T13:40:33.916Z,3.90
2023-02-09T13:43:18.012Z,4.00
2023-02-09T13:45:52.729Z,4.20
2023-02-09T13:48:34.002Z,4.20
2023-02-09T13:51:04.349Z,4.20
2023-02-09T13:53:32.062Z,4.30
2023-02-09T13:56:00.630Z,4.30
2023-02-09T13:58:31.946Z,4.30
2023-02-09T14:01:07.714Z,4.20
2023-02-09T14:03:59.094Z,4.10
2023-02-09T14:06:56.355Z,4.00
2023-02-09T14:09:36.332Z,3.80
2023-02-09T14:12:43.475Z,3.80
2023-02-09T14:15:35.980Z,3.80
2023-02-09T14:18:30.651Z,3.70
2023-02-09T14:21:03.419Z,3.60
2023-02-09T14:23:37.255Z,3.60
2023-02-09T14:26:33.282Z,3.50
2023-02-09T14:29:16.921Z,3.50
2023-02-09T14:31:56.753Z,3.50
2023-02-09T14:34:27.089Z,3.50
2023-02-09T14:36:57.056Z,3.60
2023-02-09T14:39:24.580Z,3.50
2023-02-09T14:41:57.746Z,3.50
2023-02-09T14:44:25.841Z,3.50
2023-02-09T14:49:21.541Z,3.50
2023-02-09T14:51:51.414Z,3.50
2023-02-09T14:54:24.203Z,3.50
2023-02-09T14:56:53.731Z,3.50
2023-02-09T14:59:22.115Z,3.40
2023-02-09T15:01:52.704Z,3.40
2023-02-09T15:04:20.464Z,3.30
2023-02-09T15:06:53.222Z,3.20
2023-02-09T15:09:29.141Z,3.20
2023-02-09T15:12:05.668Z,3.10
2023-02-09T15:14:46.694Z,3.10
2023-02-09T15:17:19.427Z,3.00
2023-02-09T15:19:47.126Z,2.90
2023-02-09T15:22:16.189Z,2.90
2023-02-09T15:24:45.358Z,2.90
2023-02-09T15:27:32.449Z,2.90
2023-02-09T15:30:03.006Z,2.80
2023-02-09T15:32:31.414Z,2.80
2023-02-09T15:34:58.562Z,2.80
2023-02-09T15:37:36.844Z,2.80
2023-02-09T15:40:39.663Z,2.70
2023-02-09T15:43:37.525Z,2.60
2023-02-09T15:46:24.010Z,2.60
2023-02-09T15:48:51.339Z,2.50
2023-02-09T15:51:19.035Z,2.40
2023-02-09T15:53:47.151Z,2.40
2023-02-09T15:56:15.361Z,2.30
2023-02-09T15:58:44.914Z,2.20
2023-02-09T16:01:17.357Z,2.20
2023-02-09T16:03:44.795Z,2.10
2023-02-09T16:06:27.189Z,2.10
2023-02-09T16:08:55.824Z,2.00
2023-02-09T16:11:32.856Z,2.00
2023-02-09T16:14:01.433Z,1.90
2023-02-09T16:16:30.564Z,1.80
2023-02-09T16:18:57.734Z,1.80
2023-02-09T16:21:33.410Z,1.80
2023-02-09T16:24:03.576Z,1.70
2023-02-09T16:26:32.712Z,1.70
2023-02-09T16:29:00.200Z,1.60
2023-02-09T16:33:55.222Z,1.40
2023-02-09T16:36:26.437Z,1.30
2023-02-09T16:41:41.295Z,1.10
2023-02-09T16:44:19.417Z,1.00
2023-02-09T16:46:50.186Z,0.90
2023-02-09T16:49:40.214Z,0.90
2023-02-09T16:52:18.472Z,0.80
2023-02-09T16:54:52.213Z,0.80
2023-02-09T16:57:23.088Z,0.80
2023-02-09T16:59:51.557Z,0.70
